sensor_id;sensor_type;location;lat;lon;timestamp;temperature;humidity
39503;DHT22;26970;49.900;10.774;2022-09-01T00:01:50;16.00;99.90
39503;DHT22;26970;49.900;10.774;2022-09-01T00:04:19;16.00;99.90
39503;DHT22;26970;49.900;10.774;2022-09-01T00:06:46;16.00;99.90
39503;DHT22;26970;49.900;10.774;2022-09-01T00:09:16;15.80;99.90
39503;DHT22;26970;49.900;10.774;2022-09-01T00:11:43;15.80;99.90
39503;DHT22;26970;49.900;10.774;2022-09-01T00:14:10;15.70;99.90
39503;DHT22;26970;49.900;10.774;2022-09-01T00:16:36;15.70;99.90
39503;DHT22;26970;49.900;10.774;2022-09-01T00:19:03;15.60;99.90
39503;DHT22;26970;49.900;10.774;2022-09-01T00:21:31;15.60;99.90
39503;DHT22;26970;49.900;10.774;2022-09-01T00:23:59;15.60;99.90
39503;DHT22;26970;49.900;10.774;2022-09-01T00:26:26;15.60;99.90
39503;DHT22;26970;49.900;10.774;2022-09-01T00:28:52;15.60;99.90
39503;DHT22;26970;49.900;10.774;2022-09-01T00:31:18;15.50;99.90
39503;DHT22;26970;49.900;10.774;2022-09-01T00:33:45;15.50;99.90
39503;DHT22;26970;49.900;10.774;2022-09-01T00:36:11;15.50;99.90
39503;DHT22;26970;49.900;10.774;2022-09-01T00:38:37;15.50;99.90
39503;DHT22;26970;49.900;10.774;2022-09-01T00:41:03;15.40;99.90
39503;DHT22;26970;49.900;10.774;2022-09-01T00:43:46;15.40;99.90
39503;DHT22;26970;49.900;10.774;2022-09-01T00:46:23;15.40;99.90
39503;DHT22;26970;49.900;10.774;2022-09-01T00:49:10;15.40;99.90
39503;DHT22;26970;49.900;10.774;2022-09-01T00:51:37;15.50;99.90
39503;DHT22;26970;49.900;10.774;2022-09-01T00:54:07;15.40;99.90
39503;DHT22;26970;49.900;10.774;2022-09-01T00:56:38;15.40;99.90
39503;DHT22;26970;49.900;10.774;2022-09-01T00:59:06;15.40;99.90
39503;DHT22;26970;49.900;10.774;2022-09-01T01:01:32;15.40;99.90
39503;DHT22;26970;49.900;10.774;2022-09-01T01:04:02;15.40;99.90
39503;DHT22;26970;49.900;10.774;2022-09-01T01:06:27;15.30;99.90
39503;DHT22;26970;49.900;10.774;2022-09-01T01:09:01;15.30;99.90
39503;DHT22;26970;49.900;10.774;2022-09-01T01:11:28;15.30;99.90
39503;DHT22;26970;49.900;10.774;2022-09-01T01:14:15;15.30;99.90
39503;DHT22;26970;49.900;10.774;2022-09-01T01:16:46;15.30;99.90
39503;DHT22;26970;49.900;10.774;2022-09-01T01:19:29;15.10;99.90
39503;DHT22;26970;49.900;10.774;2022-09-01T01:25:22;14.90;99.90
39503;DHT22;26970;49.900;10.774;2022-09-01T01:27:48;14.90;99.90
39503;DHT22;26970;49.900;10.774;2022-09-01T01:30:14;14.80;99.90
39503;DHT22;26970;49.900;10.774;2022-09-01T01:32:41;14.80;99.90
39503;DHT22;26970;49.900;10.774;2022-09-01T01:35:09;14.70;99.90
39503;DHT22;26970;49.900;10.774;2022-09-01T01:37:40;14.70;99.90
39503;DHT22;26970;49.900;10.774;2022-09-01T01:40:11;14.70;99.90
39503;DHT22;26970;49.900;10.774;2022-09-01T01:42:45;14.60;99.90
39503;DHT22;26970;49.900;10.774;2022-09-01T01:45:17;14.60;99.90
39503;DHT22;26970;49.900;10.774;2022-09-01T01:47:45;14.70;99.90
39503;DHT22;26970;49.900;10.774;2022-09-01T01:50:19;14.60;99.90
39503;DHT22;26970;49.900;10.774;2022-09-01T01:52:46;14.60;99.90
39503;DHT22;26970;49.900;10.774;2022-09-01T01:55:12;14.50;99.90
39503;DHT22;26970;49.900;10.774;2022-09-01T01:57:41;14.60;99.90
39503;DHT22;26970;49.900;10.774;2022-09-01T02:00:24;14.60;99.90
39503;DHT22;26970;49.900;10.774;2022-09-01T02:02:52;14.60;99.90
39503;DHT22;26970;49.900;10.774;2022-09-01T02:05:24;14.60;99.90
39503;DHT22;26970;49.900;10.774;2022-09-01T02:08:01;14.50;99.90
39503;DHT22;26970;49.900;10.774;2022-09-01T02:10:37;14.50;99.90
39503;DHT22;26970;49.900;10.774;2022-09-01T02:13:05;14.60;99.90
39503;DHT22;26970;49.900;10.774;2022-09-01T02:15:38;14.60;99.90
39503;DHT22;26970;49.900;10.774;2022-09-01T02:18:23;14.50;99.90
39503;DHT22;26970;49.900;10.774;2022-09-01T02:20:53;14.40;99.90
39503;DHT22;26970;49.900;10.774;2022-09-01T02:23:21;14.40;99.90
39503;DHT22;26970;49.900;10.774;2022-09-01T02:25:57;14.30;99.90
39503;DHT22;26970;49.900;10.774;2022-09-01T02:28:25;14.30;99.90
39503;DHT22;26970;49.900;10.774;2022-09-01T02:30:57;14.30;99.90
39503;DHT22;26970;49.900;10.774;2022-09-01T02:33:25;14.30;99.90
39503;DHT22;26970;49.900;10.774;2022-09-01T02:35:57;14.20;99.90
39503;DHT22;26970;49.900;10.774;2022-09-01T02:38:22;14.20;99.90
39503;DHT22;26970;49.900;10.774;2022-09-01T02:40:57;14.20;99.90
39503;DHT22;26970;49.900;10.774;2022-09-01T02:43:24;14.00;99.90
39503;DHT22;26970;49.900;10.774;2022-09-01T02:45:53;14.00;99.90
39503;DHT22;26970;49.900;10.774;2022-09-01T02:48:21;14.00;99.90
39503;DHT22;26970;49.900;10.774;2022-09-01T02:50:50;13.90;99.90
39503;DHT22;26970;49.900;10.774;2022-09-01T02:53:15;14.00;99.90
39503;DHT22;26970;49.900;10.774;2022-09-01T02:55:42;14.00;99.90
39503;DHT22;26970;49.900;10.774;2022-09-01T02:58:08;14.00;99.90
39503;DHT22;26970;49.900;10.774;2022-09-01T03:00:43;13.90;99.90
39503;DHT22;26970;49.900;10.774;2022-09-01T03:03:09;13.80;99.90
39503;DHT22;26970;49.900;10.774;2022-09-01T03:05:37;13.80;99.90
39503;DHT22;26970;49.900;10.774;2022-09-01T03:08:06;13.80;99.90
39503;DHT22;26970;49.900;10.774;2022-09-01T03:10:38;13.80;99.90
39503;DHT22;26970;49.900;10.774;2022-09-01T03:13:11;13.80;99.90
39503;DHT22;26970;49.900;10.774;2022-09-01T03:15:38;13.80;99.90
39503;DHT22;26970;49.900;10.774;2022-09-01T03:18:06;13.90;99.90
39503;DHT22;26970;49.900;10.774;2022-09-01T03:20:33;13.80;99.90
39503;DHT22;26970;49.900;10.774;2022-09-01T03:23:02;13.80;99.90
39503;DHT22;26970;49.900;10.774;2022-09-01T03:25:29;13.80;99.90
39503;DHT22;26970;49.900;10.774;2022-09-01T03:27:57;13.80;99.90
39503;DHT22;26970;49.900;10.774;2022-09-01T03:30:28;13.80;99.90
39503;DHT22;26970;49.900;10.774;2022-09-01T03:32:56;13.80;99.90
39503;DHT22;26970;49.900;10.774;2022-09-01T03:35:22;13.80;99.90
39503;DHT22;26970;49.900;10.774;2022-09-01T03:37:47;13.80;99.90
39503;DHT22;26970;49.900;10.774;2022-09-01T03:40:13;13.80;99.90
39503;DHT22;26970;49.900;10.774;2022-09-01T03:42:40;13.80;99.90
39503;DHT22;26970;49.900;10.774;2022-09-01T03:45:08;13.80;99.90
39503;DHT22;26970;49.900;10.774;2022-09-01T03:47:38;13.80;99.90
39503;DHT22;26970;49.900;10.774;2022-09-01T03:50:10;13.70;99.90
39503;DHT22;26970;49.900;10.774;2022-09-01T03:52:51;13.60;99.90
39503;DHT22;26970;49.900;10.774;2022-09-01T03:55:21;13.60;99.90
39503;DHT22;26970;49.900;10.774;2022-09-01T03:57:51;13.60;99.90
39503;DHT22;26970;49.900;10.774;2022-09-01T04:00:19;13.50;99.90
39503;DHT22;26970;49.900;10.774;2022-09-01T04:02:48;13.40;99.90
39503;DHT22;26970;49.900;10.774;2022-09-01T04:05:15;13.50;99.90
39503;DHT22;26970;49.900;10.774;2022-09-01T04:07:41;13.50;99.90
39503;DHT22;26970;49.900;10.774;2022-09-01T04:10:13;13.40;99.90
39503;DHT22;26970;49.900;10.774;2022-09-01T04:12:39;13.40;99.90
39503;DHT22;26970;49.900;10.774;2022-09-01T04:15:05;13.50;99.90
39503;DHT22;26970;49.900;10.774;2022-09-01T04:17:33;13.40;99.90
39503;DHT22;26970;49.900;10.774;2022-09-01T04:20:17;13.50;99.90
39503;DHT22;26970;49.900;10.774;2022-09-01T04:22:45;13.40;99.90
39503;DHT22;26970;49.900;10.774;2022-09-01T04:25:12;13.40;99.90
39503;DHT22;26970;49.900;10.774;2022-09-01T04:27:38;13.40;99.90
39503;DHT22;26970;49.900;10.774;2022-09-01T04:30:05;13.40;99.90
39503;DHT22;26970;49.900;10.774;2022-09-01T04:32:35;13.40;99.90
39503;DHT22;26970;49.900;10.774;2022-09-01T04:35:01;13.30;99.90
39503;DHT22;26970;49.900;10.774;2022-09-01T04:37:26;13.30;99.90
39503;DHT22;26970;49.900;10.774;2022-09-01T04:39:54;13.30;99.90
39503;DHT22;26970;49.900;10.774;2022-09-01T04:42:21;13.40;99.90
39503;DHT22;26970;49.900;10.774;2022-09-01T04:44:51;13.30;99.90
39503;DHT22;26970;49.900;10.774;2022-09-01T04:47:18;13.30;99.90
39503;DHT22;26970;49.900;10.774;2022-09-01T04:49:54;13.20;99.90
39503;DHT22;26970;49.900;10.774;2022-09-01T04:52:22;13.20;99.90
39503;DHT22;26970;49.900;10.774;2022-09-01T04:54:47;13.20;99.90
39503;DHT22;26970;49.900;10.774;2022-09-01T04:57:13;13.20;99.90
39503;DHT22;26970;49.900;10.774;2022-09-01T04:59:40;13.20;99.90
39503;DHT22;26970;49.900;10.774;2022-09-01T05:02:07;13.20;99.90
39503;DHT22;26970;49.900;10.774;2022-09-01T05:04:34;13.20;99.90
39503;DHT22;26970;49.900;10.774;2022-09-01T05:07:01;13.30;99.90
39503;DHT22;26970;49.900;10.774;2022-09-01T05:09:29;13.30;99.90
39503;DHT22;26970;49.900;10.774;2022-09-01T05:11:57;13.40;99.90
39503;DHT22;26970;49.900;10.774;2022-09-01T05:14:26;13.40;99.90
39503;DHT22;26970;49.900;10.774;2022-09-01T05:16:56;13.20;99.90
39503;DHT22;26970;49.900;10.774;2022-09-01T05:19:23;13.40;99.90
39503;DHT22;26970;49.900;10.774;2022-09-01T05:21:50;13.40;99.90
39503;DHT22;26970;49.900;10.774;2022-09-01T05:24:18;13.40;99.90
39503;DHT22;26970;49.900;10.774;2022-09-01T05:26:46;13.50;99.90
39503;DHT22;26970;49.900;10.774;2022-09-01T05:29:14;13.50;99.90
39503;DHT22;26970;49.900;10.774;2022-09-01T05:31:44;13.60;99.90
39503;DHT22;26970;49.900;10.774;2022-09-01T05:34:11;13.70;99.90
39503;DHT22;26970;49.900;10.774;2022-09-01T05:36:40;13.80;99.90
39503;DHT22;26970;49.900;10.774;2022-09-01T05:39:07;13.90;99.90
39503;DHT22;26970;49.900;10.774;2022-09-01T05:41:37;14.10;99.90
39503;DHT22;26970;49.900;10.774;2022-09-01T05:44:04;14.20;99.90
39503;DHT22;26970;49.900;10.774;2022-09-01T05:46:31;14.30;99.90
39503;DHT22;26970;49.900;10.774;2022-09-01T05:48:58;14.30;99.90
39503;DHT22;26970;49.900;10.774;2022-09-01T05:51:26;14.30;99.90
39503;DHT22;26970;49.900;10.774;2022-09-01T05:53:54;14.40;99.90
39503;DHT22;26970;49.900;10.774;2022-09-01T05:56:25;14.40;99.90
39503;DHT22;26970;49.900;10.774;2022-09-01T05:58:51;14.50;99.90
39503;DHT22;26970;49.900;10.774;2022-09-01T06:01:22;14.60;99.90
39503;DHT22;26970;49.900;10.774;2022-09-01T06:03:50;14.70;99.90
39503;DHT22;26970;49.900;10.774;2022-09-01T06:06:23;14.80;99.90
39503;DHT22;26970;49.900;10.774;2022-09-01T06:08:49;14.70;99.90
39503;DHT22;26970;49.900;10.774;2022-09-01T06:11:16;14.80;99.90
39503;DHT22;26970;49.900;10.774;2022-09-01T06:13:44;14.90;99.90
39503;DHT22;26970;49.900;10.774;2022-09-01T06:16:15;15.00;99.90
39503;DHT22;26970;49.900;10.774;2022-09-01T06:18:42;15.00;99.90
39503;DHT22;26970;49.900;10.774;2022-09-01T06:21:10;15.10;99.90
39503;DHT22;26970;49.900;10.774;2022-09-01T06:23:40;15.10;99.90
39503;DHT22;26970;49.900;10.774;2022-09-01T06:26:14;15.10;99.90
39503;DHT22;26970;49.900;10.774;2022-09-01T06:28:41;15.20;99.90
39503;DHT22;26970;49.900;10.774;2022-09-01T06:31:07;15.30;99.90
39503;DHT22;26970;49.900;10.774;2022-09-01T06:33:33;15.30;99.90
39503;DHT22;26970;49.900;10.774;2022-09-01T06:36:00;15.50;99.90
39503;DHT22;26970;49.900;10.774;2022-09-01T06:38:28;15.50;99.90
39503;DHT22;26970;49.900;10.774;2022-09-01T06:41:01;15.50;99.90
39503;DHT22;26970;49.900;10.774;2022-09-01T06:43:29;15.60;99.90
39503;DHT22;26970;49.900;10.774;2022-09-01T06:45:55;15.70;99.90
39503;DHT22;26970;49.900;10.774;2022-09-01T06:48:25;15.80;99.90
39503;DHT22;26970;49.900;10.774;2022-09-01T06:50:50;16.00;99.90
39503;DHT22;26970;49.900;10.774;2022-09-01T06:53:16;16.10;99.90
39503;DHT22;26970;49.900;10.774;2022-09-01T06:55:46;16.20;99.90
39503;DHT22;26970;49.900;10.774;2022-09-01T06:58:13;16.20;99.90
39503;DHT22;26970;49.900;10.774;2022-09-01T07:00:41;16.20;99.90
39503;DHT22;26970;49.900;10.774;2022-09-01T07:03:08;16.30;99.90
39503;DHT22;26970;49.900;10.774;2022-09-01T07:05:43;16.40;99.90
39503;DHT22;26970;49.900;10.774;2022-09-01T07:08:11;16.40;99.90
39503;DHT22;26970;49.900;10.774;2022-09-01T07:10:43;16.50;99.90
39503;DHT22;26970;49.900;10.774;2022-09-01T07:13:14;16.60;99.90
39503;DHT22;26970;49.900;10.774;2022-09-01T07:15:45;16.70;99.90
39503;DHT22;26970;49.900;10.774;2022-09-01T07:18:14;16.80;99.90
39503;DHT22;26970;49.900;10.774;2022-09-01T07:20:42;16.80;99.90
39503;DHT22;26970;49.900;10.774;2022-09-01T07:23:07;16.80;99.90
39503;DHT22;26970;49.900;10.774;2022-09-01T07:25:40;16.80;99.90
39503;DHT22;26970;49.900;10.774;2022-09-01T07:28:09;16.90;99.90
39503;DHT22;26970;49.900;10.774;2022-09-01T07:30:44;17.00;99.90
39503;DHT22;26970;49.900;10.774;2022-09-01T07:33:13;17.10;99.90
39503;DHT22;26970;49.900;10.774;2022-09-01T07:35:41;17.30;99.90
39503;DHT22;26970;49.900;10.774;2022-09-01T07:38:07;17.30;99.90
39503;DHT22;26970;49.900;10.774;2022-09-01T07:40:38;17.30;99.90
39503;DHT22;26970;49.900;10.774;2022-09-01T07:43:16;17.30;99.90
39503;DHT22;26970;49.900;10.774;2022-09-01T07:45:45;17.40;99.90
39503;DHT22;26970;49.900;10.774;2022-09-01T07:48:16;17.60;99.90
39503;DHT22;26970;49.900;10.774;2022-09-01T07:50:46;17.60;99.90
39503;DHT22;26970;49.900;10.774;2022-09-01T07:53:17;17.70;99.90
39503;DHT22;26970;49.900;10.774;2022-09-01T07:55:47;17.70;99.90
39503;DHT22;26970;49.900;10.774;2022-09-01T07:58:16;17.90;99.90
39503;DHT22;26970;49.900;10.774;2022-09-01T08:00:42;18.00;99.90
39503;DHT22;26970;49.900;10.774;2022-09-01T08:03:10;18.30;99.90
39503;DHT22;26970;49.900;10.774;2022-09-01T08:05:36;18.30;99.90
39503;DHT22;26970;49.900;10.774;2022-09-01T08:08:02;18.50;99.90
39503;DHT22;26970;49.900;10.774;2022-09-01T08:10:27;18.60;99.90
39503;DHT22;26970;49.900;10.774;2022-09-01T08:12:53;18.50;99.90
39503;DHT22;26970;49.900;10.774;2022-09-01T08:15:19;18.80;99.90
39503;DHT22;26970;49.900;10.774;2022-09-01T08:17:44;18.90;99.90
39503;DHT22;26970;49.900;10.774;2022-09-01T08:20:11;19.10;99.90
39503;DHT22;26970;49.900;10.774;2022-09-01T08:22:37;19.10;99.90
39503;DHT22;26970;49.900;10.774;2022-09-01T08:25:08;19.10;99.90
39503;DHT22;26970;49.900;10.774;2022-09-01T08:27:35;19.40;99.90
39503;DHT22;26970;49.900;10.774;2022-09-01T08:30:04;19.60;99.90
39503;DHT22;26970;49.900;10.774;2022-09-01T08:32:31;19.50;99.90
39503;DHT22;26970;49.900;10.774;2022-09-01T08:34:56;19.50;99.90
39503;DHT22;26970;49.900;10.774;2022-09-01T08:37:22;19.40;99.90
39503;DHT22;26970;49.900;10.774;2022-09-01T08:39:50;19.30;99.90
39503;DHT22;26970;49.900;10.774;2022-09-01T08:42:27;19.20;99.90
39503;DHT22;26970;49.900;10.774;2022-09-01T08:44:58;19.40;99.90
39503;DHT22;26970;49.900;10.774;2022-09-01T08:47:27;19.60;99.90
39503;DHT22;26970;49.900;10.774;2022-09-01T08:49:52;19.70;99.90
39503;DHT22;26970;49.900;10.774;2022-09-01T08:52:37;19.70;99.90
39503;DHT22;26970;49.900;10.774;2022-09-01T08:57:39;19.80;99.90
39503;DHT22;26970;49.900;10.774;2022-09-01T09:00:07;20.00;99.90
39503;DHT22;26970;49.900;10.774;2022-09-01T09:19:20;20.40;99.90
39503;DHT22;26970;49.900;10.774;2022-09-01T09:21:47;20.60;99.90
39503;DHT22;26970;49.900;10.774;2022-09-01T09:24:33;20.80;99.90
39503;DHT22;26970;49.900;10.774;2022-09-01T09:29:47;20.60;99.90
39503;DHT22;26970;49.900;10.774;2022-09-01T09:32:14;20.50;99.90
39503;DHT22;26970;49.900;10.774;2022-09-01T09:34:41;20.40;99.90
39503;DHT22;26970;49.900;10.774;2022-09-01T09:37:28;20.50;99.90
39503;DHT22;26970;49.900;10.774;2022-09-01T09:40:16;20.40;99.90
39503;DHT22;26970;49.900;10.774;2022-09-01T09:47:56;21.10;99.90
39503;DHT22;26970;49.900;10.774;2022-09-01T09:50:28;20.70;99.90
39503;DHT22;26970;49.900;10.774;2022-09-01T09:58:21;20.00;99.90
39503;DHT22;26970;49.900;10.774;2022-09-01T10:04:07;20.00;99.90
39503;DHT22;26970;49.900;10.774;2022-09-01T10:06:36;20.10;99.90
39503;DHT22;26970;49.900;10.774;2022-09-01T10:09:08;20.20;99.90
39503;DHT22;26970;49.900;10.774;2022-09-01T10:11:41;20.30;99.90
39503;DHT22;26970;49.900;10.774;2022-09-01T10:14:14;20.30;99.90
39503;DHT22;26970;49.900;10.774;2022-09-01T10:16:41;20.30;99.90
39503;DHT22;26970;49.900;10.774;2022-09-01T10:19:12;20.10;99.90
39503;DHT22;26970;49.900;10.774;2022-09-01T10:21:40;20.00;99.90
39503;DHT22;26970;49.900;10.774;2022-09-01T10:24:18;20.00;99.90
39503;DHT22;26970;49.900;10.774;2022-09-01T10:26:49;20.10;99.90
39503;DHT22;26970;49.900;10.774;2022-09-01T10:29:24;20.10;99.90
39503;DHT22;26970;49.900;10.774;2022-09-01T10:31:53;20.20;99.90
39503;DHT22;26970;49.900;10.774;2022-09-01T10:34:20;20.30;99.90
39503;DHT22;26970;49.900;10.774;2022-09-01T10:36:47;20.30;99.90
39503;DHT22;26970;49.900;10.774;2022-09-01T10:39:16;20.20;99.90
39503;DHT22;26970;49.900;10.774;2022-09-01T10:41:43;20.10;99.90
39503;DHT22;26970;49.900;10.774;2022-09-01T10:44:17;20.10;99.90
39503;DHT22;26970;49.900;10.774;2022-09-01T10:46:44;20.10;99.90
39503;DHT22;26970;49.900;10.774;2022-09-01T10:49:21;20.00;99.90
39503;DHT22;26970;49.900;10.774;2022-09-01T10:51:47;20.10;99.90
39503;DHT22;26970;49.900;10.774;2022-09-01T10:57:20;20.00;99.90
39503;DHT22;26970;49.900;10.774;2022-09-01T10:59:50;19.90;99.90
39503;DHT22;26970;49.900;10.774;2022-09-01T11:02:18;20.00;99.90
39503;DHT22;26970;49.900;10.774;2022-09-01T11:09:45;20.10;99.90
39503;DHT22;26970;49.900;10.774;2022-09-01T11:14:54;20.40;99.90
39503;DHT22;26970;49.900;10.774;2022-09-01T11:17:21;20.30;99.90
39503;DHT22;26970;49.900;10.774;2022-09-01T11:19:59;20.30;99.90
39503;DHT22;26970;49.900;10.774;2022-09-01T11:22:42;20.50;99.90
39503;DHT22;26970;49.900;10.774;2022-09-01T11:30:40;21.00;99.90
39503;DHT22;26970;49.900;10.774;2022-09-01T11:35:44;21.00;99.90
39503;DHT22;26970;49.900;10.774;2022-09-01T11:38:14;21.10;99.90
39503;DHT22;26970;49.900;10.774;2022-09-01T11:40:40;21.20;99.90
39503;DHT22;26970;49.900;10.774;2022-09-01T11:43:10;21.20;99.90
39503;DHT22;26970;49.900;10.774;2022-09-01T11:45:49;21.20;99.90
39503;DHT22;26970;49.900;10.774;2022-09-01T11:48:20;21.10;99.90
39503;DHT22;26970;49.900;10.774;2022-09-01T11:50:57;21.10;99.90
39503;DHT22;26970;49.900;10.774;2022-09-01T11:53:25;21.10;99.90
39503;DHT22;26970;49.900;10.774;2022-09-01T11:55:52;21.00;99.90
39503;DHT22;26970;49.900;10.774;2022-09-01T11:58:39;21.20;99.90
39503;DHT22;26970;49.900;10.774;2022-09-01T12:03:37;21.20;99.90
39503;DHT22;26970;49.900;10.774;2022-09-01T12:06:05;21.30;99.90
39503;DHT22;26970;49.900;10.774;2022-09-01T12:08:35;21.30;99.90
39503;DHT22;26970;49.900;10.774;2022-09-01T12:13:29;21.10;99.90
39503;DHT22;26970;49.900;10.774;2022-09-01T12:15:57;20.90;99.90
39503;DHT22;26970;49.900;10.774;2022-09-01T12:18:27;20.80;99.90
39503;DHT22;26970;49.900;10.774;2022-09-01T12:20:56;20.90;99.90
39503;DHT22;26970;49.900;10.774;2022-09-01T12:23:33;20.90;99.90
39503;DHT22;26970;49.900;10.774;2022-09-01T12:26:22;21.00;99.90
39503;DHT22;26970;49.900;10.774;2022-09-01T12:28:49;21.20;99.90
39503;DHT22;26970;49.900;10.774;2022-09-01T12:31:18;21.40;99.90
39503;DHT22;26970;49.900;10.774;2022-09-01T12:33:45;21.50;99.50
39503;DHT22;26970;49.900;10.774;2022-09-01T12:38:44;21.50;99.90
39503;DHT22;26970;49.900;10.774;2022-09-01T12:41:26;21.70;99.70
39503;DHT22;26970;49.900;10.774;2022-09-01T12:43:55;21.80;99.60
39503;DHT22;26970;49.900;10.774;2022-09-01T12:46:41;21.90;99.90
39503;DHT22;26970;49.900;10.774;2022-09-01T12:49:22;21.80;98.90
39503;DHT22;26970;49.900;10.774;2022-09-01T12:52:04;21.90;99.20
39503;DHT22;26970;49.900;10.774;2022-09-01T12:54:29;21.90;99.30
39503;DHT22;26970;49.900;10.774;2022-09-01T12:56:55;22.00;99.40
39503;DHT22;26970;49.900;10.774;2022-09-01T12:59:23;21.80;99.10
39503;DHT22;26970;49.900;10.774;2022-09-01T13:01:49;21.80;99.50
39503;DHT22;26970;49.900;10.774;2022-09-01T13:04:25;21.80;98.80
39503;DHT22;26970;49.900;10.774;2022-09-01T13:06:55;21.60;99.40
39503;DHT22;26970;49.900;10.774;2022-09-01T13:09:20;21.50;99.70
39503;DHT22;26970;49.900;10.774;2022-09-01T13:11:46;21.50;99.60
39503;DHT22;26970;49.900;10.774;2022-09-01T13:14:14;21.50;99.90
39503;DHT22;26970;49.900;10.774;2022-09-01T13:16:51;21.50;99.40
39503;DHT22;26970;49.900;10.774;2022-09-01T13:19:17;21.60;99.90
39503;DHT22;26970;49.900;10.774;2022-09-01T13:21:42;21.70;99.10
39503;DHT22;26970;49.900;10.774;2022-09-01T13:24:08;21.70;98.90
39503;DHT22;26970;49.900;10.774;2022-09-01T13:26:34;21.60;99.10
39503;DHT22;26970;49.900;10.774;2022-09-01T13:29:00;21.80;99.10
39503;DHT22;26970;49.900;10.774;2022-09-01T13:31:25;21.80;98.00
39503;DHT22;26970;49.900;10.774;2022-09-01T13:33:53;21.60;98.80
39503;DHT22;26970;49.900;10.774;2022-09-01T13:36:19;21.60;99.00
39503;DHT22;26970;49.900;10.774;2022-09-01T13:38:44;21.80;98.60
39503;DHT22;26970;49.900;10.774;2022-09-01T13:41:10;22.00;98.40
39503;DHT22;26970;49.900;10.774;2022-09-01T13:43:36;22.30;97.90
39503;DHT22;26970;49.900;10.774;2022-09-01T13:46:02;22.30;97.30
39503;DHT22;26970;49.900;10.774;2022-09-01T13:48:28;22.50;97.00
39503;DHT22;26970;49.900;10.774;2022-09-01T13:50:54;22.70;97.40
39503;DHT22;26970;49.900;10.774;2022-09-01T13:53:20;23.00;97.50
39503;DHT22;26970;49.900;10.774;2022-09-01T13:55:46;23.10;96.10
39503;DHT22;26970;49.900;10.774;2022-09-01T13:58:12;23.00;96.10
39503;DHT22;26970;49.900;10.774;2022-09-01T14:00:41;23.10;95.90
39503;DHT22;26970;49.900;10.774;2022-09-01T14:03:10;23.10;96.00
39503;DHT22;26970;49.900;10.774;2022-09-01T14:05:39;23.00;96.20
39503;DHT22;26970;49.900;10.774;2022-09-01T14:08:06;22.60;96.30
39503;DHT22;26970;49.900;10.774;2022-09-01T14:10:40;22.30;96.60
39503;DHT22;26970;49.900;10.774;2022-09-01T14:13:09;22.00;96.90
39503;DHT22;26970;49.900;10.774;2022-09-01T14:15:35;21.70;97.00
39503;DHT22;26970;49.900;10.774;2022-09-01T14:18:02;21.50;97.40
39503;DHT22;26970;49.900;10.774;2022-09-01T14:20:34;21.30;97.40
39503;DHT22;26970;49.900;10.774;2022-09-01T14:23:05;21.20;97.60
39503;DHT22;26970;49.900;10.774;2022-09-01T14:25:31;21.10;98.10
39503;DHT22;26970;49.900;10.774;2022-09-01T14:27:58;21.00;98.40
39503;DHT22;26970;49.900;10.774;2022-09-01T14:30:26;20.90;98.40
39503;DHT22;26970;49.900;10.774;2022-09-01T14:32:52;20.80;98.90
39503;DHT22;26970;49.900;10.774;2022-09-01T14:35:20;20.80;98.50
39503;DHT22;26970;49.900;10.774;2022-09-01T14:37:51;20.80;97.80
39503;DHT22;26970;49.900;10.774;2022-09-01T14:40:18;20.80;98.10
39503;DHT22;26970;49.900;10.774;2022-09-01T14:42:46;20.80;98.70
39503;DHT22;26970;49.900;10.774;2022-09-01T14:45:17;20.90;98.00
39503;DHT22;26970;49.900;10.774;2022-09-01T14:47:45;20.90;98.50
39503;DHT22;26970;49.900;10.774;2022-09-01T14:50:11;20.90;98.20
39503;DHT22;26970;49.900;10.774;2022-09-01T14:52:37;20.90;98.10
39503;DHT22;26970;49.900;10.774;2022-09-01T14:55:03;20.90;98.20
39503;DHT22;26970;49.900;10.774;2022-09-01T14:57:30;21.00;98.40
39503;DHT22;26970;49.900;10.774;2022-09-01T14:59:57;21.00;97.90
39503;DHT22;26970;49.900;10.774;2022-09-01T15:02:22;21.00;98.20
39503;DHT22;26970;49.900;10.774;2022-09-01T15:04:49;21.10;98.40
39503;DHT22;26970;49.900;10.774;2022-09-01T15:07:15;21.10;98.00
39503;DHT22;26970;49.900;10.774;2022-09-01T15:09:41;21.20;98.30
39503;DHT22;26970;49.900;10.774;2022-09-01T15:12:07;21.10;97.80
39503;DHT22;26970;49.900;10.774;2022-09-01T15:14:34;21.20;97.70
39503;DHT22;26970;49.900;10.774;2022-09-01T15:16:59;21.20;97.80
39503;DHT22;26970;49.900;10.774;2022-09-01T15:19:25;21.20;97.80
39503;DHT22;26970;49.900;10.774;2022-09-01T15:21:51;21.20;97.80
39503;DHT22;26970;49.900;10.774;2022-09-01T15:24:16;21.10;97.70
39503;DHT22;26970;49.900;10.774;2022-09-01T15:26:43;21.20;97.90
39503;DHT22;26970;49.900;10.774;2022-09-01T15:29:12;21.20;97.80
39503;DHT22;26970;49.900;10.774;2022-09-01T15:31:40;21.20;98.30
39503;DHT22;26970;49.900;10.774;2022-09-01T15:34:07;21.20;98.40
39503;DHT22;26970;49.900;10.774;2022-09-01T15:36:37;21.10;97.90
39503;DHT22;26970;49.900;10.774;2022-09-01T15:39:07;21.10;98.20
39503;DHT22;26970;49.900;10.774;2022-09-01T15:41:34;21.10;97.90
39503;DHT22;26970;49.900;10.774;2022-09-01T15:44:03;21.10;98.30
39503;DHT22;26970;49.900;10.774;2022-09-01T15:46:33;21.10;98.30
39503;DHT22;26970;49.900;10.774;2022-09-01T15:49:00;21.00;98.20
39503;DHT22;26970;49.900;10.774;2022-09-01T15:51:32;21.10;98.50
39503;DHT22;26970;49.900;10.774;2022-09-01T15:54:02;21.00;98.60
39503;DHT22;26970;49.900;10.774;2022-09-01T15:56:28;21.00;98.60
39503;DHT22;26970;49.900;10.774;2022-09-01T15:58:55;21.00;98.80
39503;DHT22;26970;49.900;10.774;2022-09-01T16:01:23;21.10;98.40
39503;DHT22;26970;49.900;10.774;2022-09-01T16:03:48;21.10;98.00
39503;DHT22;26970;49.900;10.774;2022-09-01T16:06:14;21.10;98.20
39503;DHT22;26970;49.900;10.774;2022-09-01T16:08:40;21.10;98.30
39503;DHT22;26970;49.900;10.774;2022-09-01T16:11:08;21.20;98.20
39503;DHT22;26970;49.900;10.774;2022-09-01T16:13:38;21.20;98.20
39503;DHT22;26970;49.900;10.774;2022-09-01T16:19:05;21.00;98.50
39503;DHT22;26970;49.900;10.774;2022-09-01T16:21:57;21.00;98.50
39503;DHT22;26970;49.900;10.774;2022-09-01T16:24:23;20.90;98.20
39503;DHT22;26970;49.900;10.774;2022-09-01T16:26:50;20.90;97.60
39503;DHT22;26970;49.900;10.774;2022-09-01T16:29:37;20.90;98.20
39503;DHT22;26970;49.900;10.774;2022-09-01T16:32:04;20.90;97.90
39503;DHT22;26970;49.900;10.774;2022-09-01T16:34:30;20.90;97.20
39503;DHT22;26970;49.900;10.774;2022-09-01T16:37:05;20.90;97.00